Time;durP1;ratioP1;P1;durP2;ratioP2;P2;SDS_P1;SDS_P2;PMS_P1;PMS_P2;Temp;Humidity;BMP_temperature;BMP_pressure;BME280_temperature;BME280_humidity;BME280_pressure;Samples;Min_cycle;Max_cycle;Signal;HPM_P1;HPM_P2
2022/03/05 00:52:42;;;;;;;31.37;11.87;;;;;;;;;;6176198;23;20590;-89
2022/03/05 00:55:47;;;;;;;31.93;12.37;;;;;;;;;;6179767;23;20204;-88
2022/03/05 00:58:52;;;;;;;33.57;11.87;;;;;;;;;;6179781;23;20592;-89
2022/03/05 01:01:58;;;;;;;29.80;12.03;;;;;;;;;;6178940;23;20176;-88
2022/03/05 01:05:03;;;;;;;30.10;11.37;;;;;;;;;;6180979;23;20172;-89
2022/03/05 01:08:10;;;;;;;28.80;10.60;;;;;;;;;;6179601;23;20207;-89
2022/03/05 01:11:16;;;;;;;28.07;10.73;;;;;;;;;;6178208;23;20252;-88
2022/03/05 01:14:21;;;;;;;35.23;11.93;;;;;;;;;;6196954;23;20156;-88
2022/03/05 01:17:26;;;;;;;28.50;10.87;;;;;;;;;;6179049;23;20250;-87
2022/03/05 01:20:31;;;;;;;30.00;11.10;;;;;;;;;;6179458;23;20164;-88
2022/03/05 01:23:37;;;;;;;27.73;11.10;;;;;;;;;;6178191;23;20168;-88
2022/03/05 01:26:42;;;;;;;35.20;11.70;;;;;;;;;;6177242;23;20260;-87
2022/03/05 01:29:47;;;;;;;35.63;12.57;;;;;;;;;;6178217;23;20239;-89
2022/03/05 01:32:52;;;;;;;36.93;12.70;;;;;;;;;;6180097;23;20168;-87
2022/03/05 01:35:57;;;;;;;34.07;13.37;;;;;;;;;;6178569;23;20163;-88
2022/03/05 01:39:03;;;;;;;29.70;12.00;;;;;;;;;;6177015;23;20207;-88
2022/03/05 01:42:08;;;;;;;34.67;12.83;;;;;;;;;;6179166;23;20167;-88
2022/03/05 01:45:13;;;;;;;37.17;12.97;;;;;;;;;;6178725;23;20171;-89
2022/03/05 01:48:18;;;;;;;35.23;12.93;;;;;;;;;;6178014;23;20710;-91
2022/03/05 01:51:22;;;;;;;34.97;12.90;;;;;;;;;;6176978;23;20215;-90
2022/03/05 01:54:29;;;;;;;35.73;13.43;;;;;;;;;;6177203;23;20164;-90
2022/03/05 01:57:34;;;;;;;36.43;12.83;;;;;;;;;;6177916;23;20291;-92
2022/03/05 02:00:38;;;;;;;37.80;13.30;;;;;;;;;;6175625;23;20225;-91
2022/03/05 02:03:44;;;;;;;42.00;14.70;;;;;;;;;;6176774;23;20152;-90
2022/03/05 02:06:49;;;;;;;40.80;14.73;;;;;;;;;;6176843;23;20195;-90
2022/03/05 02:09:55;;;;;;;45.10;16.63;;;;;;;;;;6178556;23;20155;-91
2022/03/05 02:12:59;;;;;;;47.47;15.30;;;;;;;;;;6178313;23;20590;-90
2022/03/05 02:16:05;;;;;;;45.93;15.40;;;;;;;;;;6195089;23;20176;-91
2022/03/05 02:19:10;;;;;;;45.77;13.83;;;;;;;;;;6179183;23;20219;-90
2022/03/05 02:22:16;;;;;;;41.70;15.83;;;;;;;;;;6177122;23;20187;-89
2022/03/05 02:25:21;;;;;;;39.23;13.13;;;;;;;;;;6177416;23;20243;-90
2022/03/05 02:28:28;;;;;;;31.20;12.00;;;;;;;;;;6175931;23;20198;-92
2022/03/05 02:31:33;;;;;;;34.93;13.57;;;;;;;;;;6177415;23;20241;-91
2022/03/05 02:34:38;;;;;;;35.23;12.50;;;;;;;;;;6176998;23;20224;-90
2022/03/05 02:37:45;;;;;;;32.60;12.03;;;;;;;;;;6177524;23;20171;-90
2022/03/05 02:40:51;;;;;;;34.97;12.83;;;;;;;;;;6176477;23;20576;-90
2022/03/05 02:43:55;;;;;;;40.03;13.47;;;;;;;;;;6178070;23;20243;-90
2022/03/05 02:47:01;;;;;;;35.87;13.10;;;;;;;;;;6194205;23;20192;-91
2022/03/05 02:50:07;;;;;;;41.07;14.83;;;;;;;;;;6176039;23;20176;-90
2022/03/05 02:53:13;;;;;;;43.53;14.23;;;;;;;;;;6117210;23;1138854;-91
2022/03/05 02:56:18;;;;;;;50.67;17.17;;;;;;;;;;6165463;23;20635;-91
2022/03/05 02:59:25;;;;;;;43.47;15.30;;;;;;;;;;6166301;23;20168;-91
2022/03/05 03:02:29;;;;;;;57.33;16.87;;;;;;;;;;6165989;23;20241;-91
2022/03/05 03:05:34;;;;;;;60.93;18.83;;;;;;;;;;6166450;23;20148;-90
2022/03/05 03:08:41;;;;;;;36.93;13.73;;;;;;;;;;6166975;23;20196;-90
2022/03/05 03:11:45;;;;;;;44.97;15.57;;;;;;;;;;6168349;23;20244;-90
2022/03/05 03:14:50;;;;;;;54.73;15.70;;;;;;;;;;6167554;23;20609;-90
2022/03/05 03:17:56;;;;;;;50.17;16.63;;;;;;;;;;6165087;23;20165;-91
2022/03/05 03:21:01;;;;;;;55.43;17.40;;;;;;;;;;6165049;23;20216;-90
2022/03/05 03:24:08;;;;;;;58.07;17.83;;;;;;;;;;6164508;23;20185;-90
2022/03/05 03:27:12;;;;;;;53.07;17.43;;;;;;;;;;6166261;23;20193;-90
2022/03/05 03:30:18;;;;;;;50.77;17.13;;;;;;;;;;6166388;23;20216;-89
2022/03/05 03:33:24;;;;;;;49.00;17.13;;;;;;;;;;6166199;23;20168;-89
2022/03/05 03:36:29;;;;;;;49.83;15.73;;;;;;;;;;6165091;23;20177;-90
2022/03/05 03:39:35;;;;;;;57.13;17.93;;;;;;;;;;6164333;23;20616;-90
2022/03/05 03:42:41;;;;;;;57.40;17.70;;;;;;;;;;6165759;23;20173;-89
2022/03/05 03:45:45;;;;;;;48.70;17.53;;;;;;;;;;6164804;23;20281;-89
2022/03/05 03:48:50;;;;;;;57.00;18.50;;;;;;;;;;6166558;23;20200;-90
2022/03/05 03:51:55;;;;;;;49.43;16.63;;;;;;;;;;6176742;23;20728;-89
2022/03/05 03:55:01;;;;;;;43.73;15.13;;;;;;;;;;6176083;23;20171;-87
2022/03/05 03:58:06;;;;;;;48.47;16.23;;;;;;;;;;6179013;23;20188;-89
2022/03/05 04:01:11;;;;;;;44.17;16.03;;;;;;;;;;6177840;23;20193;-89
2022/03/05 04:04:18;;;;;;;53.87;16.30;;;;;;;;;;6178782;23;20221;-89
2022/03/05 04:10:47;;;;;;;41.43;15.77;;;;;;;;;;6176032;23;20207;-88
2022/03/05 04:13:52;;;;;;;42.47;15.47;;;;;;;;;;6178305;23;20167;-89
2022/03/05 04:16:57;;;;;;;52.00;16.03;;;;;;;;;;6177296;23;20172;-89
2022/03/05 04:20:02;;;;;;;42.93;14.93;;;;;;;;;;6176611;23;20176;-89
2022/03/05 04:23:07;;;;;;;41.13;14.43;;;;;;;;;;6176656;23;20284;-88
2022/03/05 04:26:13;;;;;;;43.70;15.23;;;;;;;;;;6177373;23;20171;-89
2022/03/05 04:29:18;;;;;;;43.23;15.30;;;;;;;;;;6193960;23;20168;-89
2022/03/05 04:32:24;;;;;;;45.63;15.70;;;;;;;;;;6177646;23;20172;-89
2022/03/05 04:35:29;;;;;;;41.77;14.73;;;;;;;;;;6176652;23;20180;-89
2022/03/05 04:38:33;;;;;;;44.40;14.27;;;;;;;;;;6176261;23;20167;-89
2022/03/05 04:41:40;;;;;;;39.93;14.90;;;;;;;;;;6176738;23;20631;-89
2022/03/05 04:44:45;;;;;;;48.40;14.33;;;;;;;;;;6174964;23;20176;-89
2022/03/05 04:47:53;;;;;;;43.00;14.17;;;;;;;;;;6194848;23;20204;-90
2022/03/05 04:50:58;;;;;;;43.10;14.33;;;;;;;;;;6194081;23;20490;-88
2022/03/05 04:54:03;;;;;;;36.53;12.77;;;;;;;;;;6148296;23;20224;-90
2022/03/05 04:57:10;;;;;;;40.50;13.20;;;;;;;;;;6147470;23;20176;-89
2022/03/05 05:00:15;;;;;;;39.70;13.63;;;;;;;;;;6146535;23;20164;-89
2022/03/05 05:03:29;;;;;;;36.30;13.63;;;;;;;;;;6149654;23;20157;-89
2022/03/05 05:06:34;;;;;;;33.43;11.97;;;;;;;;;;6147998;23;20169;-88
2022/03/05 05:09:41;;;;;;;35.77;12.77;;;;;;;;;;6148867;23;20239;-89
2022/03/05 05:12:47;;;;;;;36.67;12.60;;;;;;;;;;6147813;23;20232;-87
2022/03/05 05:15:52;;;;;;;37.37;12.80;;;;;;;;;;6148363;23;20160;-88
2022/03/05 05:22:21;;;;;;;38.13;13.77;;;;;;;;;;6149536;23;20681;-89
2022/03/05 05:25:26;;;;;;;42.07;12.90;;;;;;;;;;6149483;23;20172;-88
2022/03/05 05:28:32;;;;;;;32.83;12.90;;;;;;;;;;6150218;23;20208;-88
2022/03/05 05:31:37;;;;;;;37.70;13.60;;;;;;;;;;6147860;23;20164;-87
2022/03/05 05:34:42;;;;;;;36.47;13.27;;;;;;;;;;6149050;23;20173;-87
2022/03/05 05:37:47;;;;;;;35.57;13.43;;;;;;;;;;6148149;23;20252;-89
2022/03/05 05:40:52;;;;;;;37.57;14.27;;;;;;;;;;6146790;23;20251;-88
2022/03/05 05:43:58;;;;;;;39.77;13.60;;;;;;;;;;6148205;23;20180;-88
2022/03/05 05:47:03;;;;;;;40.30;13.77;;;;;;;;;;6146257;23;20277;-91
2022/03/05 05:50:08;;;;;;;41.17;13.53;;;;;;;;;;6147833;23;20149;-88
2022/03/05 05:53:13;;;;;;;37.77;13.57;;;;;;;;;;6172724;23;20291;-90
2022/03/05 05:56:19;;;;;;;40.77;14.13;;;;;;;;;;6177594;23;20179;-90
2022/03/05 05:59:26;;;;;;;36.50;13.00;;;;;;;;;;6176895;23;20163;-91
2022/03/05 06:02:31;;;;;;;36.13;13.60;;;;;;;;;;6177323;23;20164;-89
2022/03/05 06:05:36;;;;;;;35.00;11.90;;;;;;;;;;6177802;23;20167;-91
2022/03/05 06:08:41;;;;;;;34.97;13.70;;;;;;;;;;6176809;23;20246;-89
2022/03/05 06:11:46;;;;;;;59.23;15.17;;;;;;;;;;6177256;23;20175;-90
2022/03/05 06:14:52;;;;;;;36.77;13.27;;;;;;;;;;6176035;23;20187;-89
2022/03/05 06:17:58;;;;;;;36.73;13.30;;;;;;;;;;6176095;23;20167;-90
2022/03/05 06:21:03;;;;;;;35.80;14.13;;;;;;;;;;6175918;23;20184;-90
2022/03/05 06:24:10;;;;;;;49.33;14.20;;;;;;;;;;6178679;23;20512;-90
2022/03/05 06:27:15;;;;;;;36.23;13.87;;;;;;;;;;6178721;23;20202;-90
2022/03/05 06:30:21;;;;;;;40.07;13.40;;;;;;;;;;6178306;23;20168;-90
2022/03/05 06:33:26;;;;;;;38.23;14.43;;;;;;;;;;6179068;23;20207;-89
2022/03/05 06:36:31;;;;;;;37.53;13.53;;;;;;;;;;6177055;23;20475;-90
2022/03/05 06:39:36;;;;;;;41.10;14.40;;;;;;;;;;6177307;23;20172;-89
2022/03/05 06:42:42;;;;;;;43.93;14.77;;;;;;;;;;6178394;23;20156;-90
2022/03/05 06:45:48;;;;;;;37.47;14.10;;;;;;;;;;6178686;23;20292;-90
2022/03/05 06:48:54;;;;;;;34.63;13.87;;;;;;;;;;6197455;23;20257;-91
2022/03/05 06:51:59;;;;;;;37.80;14.53;;;;;;;;;;6178901;23;20195;-90
2022/03/05 06:55:04;;;;;;;46.30;15.23;;;;;;;;;;6198221;23;20167;-90
2022/03/05 06:58:09;;;;;;;32.27;13.40;;;;;;;;;;6178290;23;20272;-89
2022/03/05 07:01:15;;;;;;;35.90;13.70;;;;;;;;;;6178400;23;20175;-89
2022/03/05 07:04:20;;;;;;;43.93;14.60;;;;;;;;;;6179585;23;20241;-89
2022/03/05 07:07:25;;;;;;;34.33;13.07;;;;;;;;;;6180322;23;20168;-90
2022/03/05 07:10:30;;;;;;;42.77;14.40;;;;;;;;;;6177924;23;20171;-89
2022/03/05 07:13:35;;;;;;;39.10;14.10;;;;;;;;;;6177770;23;20172;-91
2022/03/05 07:16:42;;;;;;;38.40;14.17;;;;;;;;;;6178925;23;20196;-91
2022/03/05 07:19:47;;;;;;;35.60;13.53;;;;;;;;;;6179513;23;20171;-89
2022/03/05 07:22:51;;;;;;;41.43;15.23;;;;;;;;;;6181356;23;20240;-91
2022/03/05 07:25:57;;;;;;;177.57;53.80;;;;;;;;;;6180087;23;20168;-90
2022/03/05 07:29:02;;;;;;;50.00;20.97;;;;;;;;;;6180495;23;20240;-89
2022/03/05 07:32:10;;;;;;;41.47;15.90;;;;;;;;;;6178928;23;20171;-90
2022/03/05 07:35:16;;;;;;;43.83;16.87;;;;;;;;;;6179078;23;20180;-90
2022/03/05 07:38:20;;;;;;;42.83;15.90;;;;;;;;;;6178433;23;20167;-90
2022/03/05 07:41:25;;;;;;;38.57;15.13;;;;;;;;;;6181005;23;20168;-89
2022/03/05 07:44:32;;;;;;;43.57;16.30;;;;;;;;;;6179781;23;20175;-89
2022/03/05 07:47:38;;;;;;;36.87;14.83;;;;;;;;;;6176862;23;20172;-90
2022/03/05 07:50:43;;;;;;;47.83;16.00;;;;;;;;;;6180191;23;20152;-89
2022/03/05 07:53:48;;;;;;;37.27;14.77;;;;;;;;;;6179326;23;20184;-90
2022/03/05 07:56:53;;;;;;;42.50;15.40;;;;;;;;;;6180417;23;20200;-91
2022/03/05 07:59:59;;;;;;;41.10;15.87;;;;;;;;;;6182428;23;20187;-89
2022/03/05 08:03:05;;;;;;;38.37;14.53;;;;;;;;;;6180371;23;20215;-90
2022/03/05 08:06:10;;;;;;;44.17;16.03;;;;;;;;;;6197190;23;20243;-89
2022/03/05 08:09:15;;;;;;;38.17;15.73;;;;;;;;;;6180197;23;20198;-89
2022/03/05 08:12:20;;;;;;;44.60;16.23;;;;;;;;;;6180881;23;20168;-90
2022/03/05 08:19:16;;;;;;;37.07;14.90;;;;;;;;;;6182205;23;20436;-90
2022/03/05 08:22:21;;;;;;;36.77;14.87;;;;;;;;;;6180675;23;20171;-90
2022/03/05 08:25:28;;;;;;;39.70;16.37;;;;;;;;;;6180496;23;20175;-89
2022/03/05 08:28:33;;;;;;;37.50;15.97;;;;;;;;;;6178467;23;20527;-89
2022/03/05 08:31:38;;;;;;;37.27;15.27;;;;;;;;;;6198549;23;20235;-90
2022/03/05 08:34:45;;;;;;;40.70;14.73;;;;;;;;;;6180066;23;20176;-90
2022/03/05 08:37:50;;;;;;;36.37;14.00;;;;;;;;;;6181365;23;20248;-89
2022/03/05 08:40:55;;;;;;;34.17;13.27;;;;;;;;;;6179971;23;20295;-89
2022/03/05 08:44:01;;;;;;;39.80;14.57;;;;;;;;;;6180084;23;20187;-91
2022/03/05 08:47:07;;;;;;;38.23;13.70;;;;;;;;;;6181406;23;20221;-90
2022/03/05 08:50:14;;;;;;;38.77;14.93;;;;;;;;;;6200250;23;20179;-90
2022/03/05 08:53:20;;;;;;;37.53;13.03;;;;;;;;;;6204822;23;20227;-90
2022/03/05 08:56:26;;;;;;;33.60;13.83;;;;;;;;;;6185721;23;20612;-90
2022/03/05 08:59:31;;;;;;;28.60;12.03;;;;;;;;;;6183818;23;20172;-90
2022/03/05 09:02:36;;;;;;;30.43;12.17;;;;;;;;;;6184717;23;20166;-90
2022/03/05 09:05:43;;;;;;;30.47;11.97;;;;;;;;;;6187301;23;20195;-90
2022/03/05 09:08:48;;;;;;;28.27;11.40;;;;;;;;;;6184753;23;20195;-91
2022/03/05 09:11:53;;;;;;;29.67;12.53;;;;;;;;;;6184978;23;20171;-91
2022/03/05 09:14:58;;;;;;;27.10;11.80;;;;;;;;;;6183700;23;20244;-90
2022/03/05 09:18:04;;;;;;;31.63;12.33;;;;;;;;;;6182675;23;20180;-90
2022/03/05 09:21:11;;;;;;;29.97;12.47;;;;;;;;;;6183751;23;20220;-90
2022/03/05 09:24:24;;;;;;;29.30;11.47;;;;;;;;;;6190076;23;20168;-90
2022/03/05 09:27:30;;;;;;;25.27;9.53;;;;;;;;;;6184788;23;20164;-89
2022/03/05 09:30:35;;;;;;;30.93;12.40;;;;;;;;;;6199820;23;20203;-89
2022/03/05 09:33:45;;;;;;;29.53;12.00;;;;;;;;;;6184245;23;20172;-89
2022/03/05 09:36:52;;;;;;;30.37;11.07;;;;;;;;;;6185118;23;20168;-90
2022/03/05 09:40:08;;;;;;;27.77;11.37;;;;;;;;;;6183176;23;20195;-90
2022/03/05 09:43:13;;;;;;;30.03;12.70;;;;;;;;;;6183211;23;20156;-90
2022/03/05 09:46:20;;;;;;;30.40;12.47;;;;;;;;;;6181769;23;20167;-90
2022/03/05 09:52:46;;;;;;;31.73;12.30;;;;;;;;;;6169823;23;20255;-88
2022/03/05 09:55:52;;;;;;;28.87;12.03;;;;;;;;;;6165767;23;20173;-88
2022/03/05 09:58:57;;;;;;;32.40;12.10;;;;;;;;;;6167919;23;20214;-89
2022/03/05 10:02:05;;;;;;;27.00;11.60;;;;;;;;;;6164740;23;20174;-89
2022/03/05 10:05:13;;;;;;;26.00;10.50;;;;;;;;;;6169213;23;20172;-90
2022/03/05 10:08:20;;;;;;;27.83;10.53;;;;;;;;;;6168496;23;20266;-90
